| time (UTC) | temp F | wind direction | speed MPH | gust MPH | rain 1hr in | rain 24hr in | rain mn in | humidity % | barometer mb |
| 20260507103501 | 62 | 355 | 0.0 | 1.0 | 0.11 | 1.88 | 1.24 | 99 | 1009.8 |
| 20260507103001 | 62 | 355 | 0.0 | 1.0 | 0.11 | 1.88 | 1.24 | 99 | 1009.9 |
| 20260507102001 | 62 | 355 | 0.0 | 0.0 | 0.10 | 1.87 | 1.23 | 99 | 1010.1 |
| 20260507101503 | 62 | 355 | 0.0 | 0.0 | 0.10 | 1.87 | 1.23 | 98 | 1010.1 |
| 20260507101001 | 62 | 355 | 0.0 | 0.0 | 0.10 | 1.87 | 1.23 | 99 | 1010.2 |
| 20260507100500 | 62 | 355 | 0.0 | 2.0 | 0.09 | 1.86 | 1.22 | 99 | 1010.2 |
| 20260507100005 | 62 | 355 | 1.0 | 2.0 | 0.08 | 1.85 | 1.21 | 99 | 1010.3 |
| 20260507095459 | 62 | 355 | 1.0 | 3.0 | 0.05 | 1.82 | 1.18 | 98 | 1010.7 |
| 20260507095000 | 62 | 355 | 1.0 | 3.0 | 0.01 | 1.78 | 1.14 | 98 | 1010.7 |
| 20260507094500 | 62 | 234 | 0.0 | 1.0 | 0.03 | 1.78 | 1.14 | 98 | 1010.4 |
| 20260507094001 | 62 | 234 | 0.0 | 2.0 | 0.02 | 1.77 | 1.13 | 98 | 1010.0 |
| 20260507093459 | 62 | 183 | 0.0 | 2.0 | 0.02 | 1.77 | 1.13 | 98 | 1010.0 |
| 20260507093000 | 62 | 143 | 0.0 | 1.0 | 0.03 | 1.77 | 1.13 | 98 | 1010.1 |
| 20260507092459 | 62 | 143 | 0.0 | 1.0 | 0.03 | 1.77 | 1.13 | 98 | 1009.9 |
| 20260507091459 | 62 | 170 | 0.0 | 1.0 | 0.08 | 1.77 | 1.13 | 98 | 1010.1 |
| 20260507091000 | 62 | 198 | 1.0 | 3.0 | 0.12 | 1.77 | 1.13 | 98 | 1010.2 |
| 20260507090005 | 63 | 208 | 1.0 | 4.0 | 0.19 | 1.77 | 1.13 | 98 | 1009.7 |
| 20260507085459 | 63 | 316 | 0.0 | 1.0 | 0.23 | 1.77 | 1.13 | 98 | 1010.0 |
| 20260507084959 | 63 | 316 | 0.0 | 2.0 | 0.26 | 1.77 | 1.13 | 98 | 1010.1 |
| 20260507084459 | 63 | 316 | 1.0 | 2.0 | 0.26 | 1.75 | 1.11 | 98 | 1010.5 |
| 20260507084001 | 63 | 316 | 1.0 | 2.0 | 0.28 | 1.75 | 1.11 | 98 | 1010.8 |
| 20260507082959 | 63 | 316 | 1.0 | 3.0 | 0.32 | 1.74 | 1.10 | 98 | 1011.0 |
| 20260507082500 | 63 | 280 | 1.0 | 3.0 | 0.34 | 1.74 | 1.10 | 98 | 1010.6 |
| 20260507082001 | 63 | 170 | 0.0 | 2.0 | 0.35 | 1.72 | 1.08 | 98 | 1009.8 |
| 20260507080959 | 63 | 284 | 0.0 | 1.0 | 0.31 | 1.65 | 1.01 | 98 | 1011.1 |
| 20260507080459 | 63 | 284 | 0.0 | 1.0 | 0.28 | 1.60 | 0.96 | 98 | 1011.4 |
| 20260507080004 | 63 | 284 | 0.0 | 1.0 | 0.27 | 1.57 | 0.93 | 98 | 1011.4 |
| 20260507075459 | 63 | 284 | 0.0 | 1.0 | 0.25 | 1.54 | 0.90 | 98 | 1011.4 |
| 20260507074959 | 63 | 284 | 0.0 | 1.0 | 0.24 | 1.51 | 0.87 | 98 | 1011.5 |
| 20260507074459 | 63 | 284 | 0.0 | 1.0 | 0.26 | 1.49 | 0.85 | 98 | 1011.3 |
| 20260507073459 | 63 | 284 | 0.0 | 2.0 | 0.32 | 1.46 | 0.82 | 98 | 1011.2 |
| 20260507072959 | 63 | 284 | 1.0 | 3.0 | 0.30 | 1.42 | 0.78 | 98 | 1011.1 |
| 20260507072459 | 63 | 284 | 1.0 | 3.0 | 0.28 | 1.39 | 0.75 | 98 | 1011.3 |
| 20260507072001 | 63 | 284 | 0.0 | 1.0 | 0.29 | 1.37 | 0.73 | 98 | 1011.0 |
| 20260507071459 | 63 | 284 | 0.0 | 2.0 | 0.29 | 1.36 | 0.72 | 98 | 1011.2 |
| 20260507070959 | 63 | 284 | 0.0 | 2.0 | 0.30 | 1.34 | 0.70 | 98 | 1011.1 |
| 20260507070459 | 63 | 284 | 0.0 | 0.0 | 0.29 | 1.32 | 0.68 | 98 | 1010.8 |
| 20260507065459 | 63 | 284 | 0.0 | 1.0 | 0.27 | 1.29 | 0.65 | 98 | 1010.9 |
| 20260507064501 | 63 | 284 | 0.0 | 2.0 | 0.20 | 1.22 | 0.58 | 98 | 1011.5 |
| 20260507063959 | 63 | 284 | 0.0 | 2.0 | 0.15 | 1.17 | 0.53 | 98 | 1011.7 |
| 20260507063459 | 63 | 284 | 0.0 | 2.0 | 0.12 | 1.14 | 0.50 | 98 | 1011.7 |
| 20260507062501 | 63 | 284 | 1.0 | 3.0 | 0.11 | 1.11 | 0.47 | 98 | 1012.1 |
| 20260507061459 | 63 | 279 | 1.0 | 3.0 | 0.15 | 1.07 | 0.43 | 98 | 1012.6 |
| 20260507060501 | 63 | 274 | 0.0 | 0.0 | 0.14 | 1.03 | 0.39 | 98 | 1011.9 |
| 20260507060005 | 63 | 274 | 0.0 | 0.0 | 0.17 | 1.03 | 0.39 | 98 | 1011.8 |
| 20260507055459 | 63 | 274 | 0.0 | 1.0 | 0.18 | 1.02 | 0.38 | 98 | 1012.0 |
| 20260507054959 | 63 | 274 | 0.0 | 2.0 | 0.20 | 1.02 | 0.38 | 98 | 1012.0 |
| 20260507054459 | 63 | 274 | 0.0 | 1.0 | 0.21 | 1.02 | 0.38 | 98 | 1012.6 |
| 20260507054001 | 63 | 274 | 0.0 | 1.0 | 0.26 | 1.02 | 0.38 | 98 | 1012.4 |
| 20260507053459 | 63 | 276 | 0.0 | 0.0 | 0.30 | 1.02 | 0.38 | 98 | 1012.7 |
| 20260507052959 | 63 | 276 | 1.0 | 4.0 | 0.33 | 1.01 | 0.37 | 98 | 1013.1 |
| 20260507052500 | 63 | 276 | 1.0 | 4.0 | 0.32 | 1.00 | 0.36 | 98 | 1013.1 |
| 20260507052000 | 63 | 174 | 1.0 | 2.0 | 0.31 | 0.98 | 0.34 | 98 | 1013.0 |
| 20260507051459 | 63 | 67 | 1.0 | 2.0 | 0.26 | 0.92 | 0.28 | 98 | 1013.4 |
| 20260507051000 | 63 | 330 | 1.0 | 2.0 | 0.25 | 0.90 | 0.26 | 98 | 1013.9 |
| 20260507050459 | 63 | 346 | 1.0 | 2.0 | 0.25 | 0.89 | 0.25 | 98 | 1013.2 |
| 20260507050003 | 63 | 346 | 1.0 | 2.0 | 0.21 | 0.85 | 0.21 | 98 | 1013.0 |
| 20260507045500 | 63 | 339 | 1.0 | 2.0 | 0.20 | 0.84 | 0.20 | 98 | 1013.4 |
| 20260507044959 | 63 | 56 | 1.0 | 2.0 | 0.18 | 0.82 | 0.18 | 98 | 1012.8 |
| 20260507044001 | 63 | 101 | 1.0 | 2.0 | 0.12 | 0.76 | 0.12 | 98 | 1013.0 |
| 20260507043500 | 63 | 317 | 1.0 | 2.0 | 0.08 | 0.72 | 0.08 | 98 | 1013.3 |
| 20260507041500 | 63 | 198 | 0.0 | 2.0 | 0.02 | 0.66 | 0.02 | 97 | 1012.7 |
| 20260507041001 | 63 | 197 | 0.0 | 1.0 | 0.01 | 0.65 | 0.01 | 97 | 1012.4 |
| 20260507040500 | 63 | 197 | 0.0 | 0.0 | 0.00 | 0.64 | 0.00 | 97 | 1012.3 |
| 20260507040009 | 63 | 197 | 0.0 | 0.0 | 0.00 | 0.64 | 0.00 | 97 | 1012.5 |
| 20260507035502 | 63 | 197 | 0.0 | 1.0 | 0.00 | 0.64 | 0.64 | 97 | 1012.4 |
| 20260507035002 | 63 | 197 | 0.0 | 2.0 | 0.00 | 0.64 | 0.64 | 97 | 1012.6 |
| 20260507034504 | 63 | 197 | 0.0 | 2.0 | 0.00 | 0.64 | 0.64 | 97 | 1012.6 |
| 20260507033502 | 63 | 204 | 0.0 | 1.0 | 0.00 | 0.64 | 0.64 | 97 | 1012.7 |
| 20260507033002 | 63 | 204 | 0.0 | 0.0 | 0.00 | 0.64 | 0.64 | 97 | 1012.8 |
| 20260507032504 | 63 | 204 | 0.0 | 1.0 | 0.00 | 0.64 | 0.64 | 97 | 1012.8 |
| 20260507031502 | 63 | 204 | 0.0 | 1.0 | 0.00 | 0.64 | 0.64 | 96 | 1012.8 |
| 20260507030501 | 63 | 204 | 0.0 | 1.0 | 0.01 | 0.64 | 0.64 | 97 | 1013.0 |
| 20260507030007 | 63 | 204 | 0.0 | 2.0 | 0.01 | 0.64 | 0.64 | 96 | 1012.7 |
| 20260507025502 | 63 | 204 | 1.0 | 3.0 | 0.01 | 0.64 | 0.64 | 96 | 1012.3 |
| 20260507024502 | 63 | 188 | 1.0 | 4.0 | 0.01 | 0.64 | 0.64 | 96 | 1012.2 |
| 20260507024003 | 63 | 200 | 3.0 | 5.0 | 0.02 | 0.64 | 0.64 | 96 | 1012.5 |
| 20260507023501 | 63 | 203 | 2.0 | 5.0 | 0.02 | 0.64 | 0.64 | 96 | 1012.2 |
| 20260507023002 | 63 | 219 | 1.0 | 3.0 | 0.03 | 0.64 | 0.64 | 96 | 1012.7 |
| 20260507022502 | 63 | 265 | 0.0 | 2.0 | 0.03 | 0.64 | 0.64 | 96 | 1012.8 |
| 20260507022004 | 63 | 299 | 0.0 | 1.0 | 0.04 | 0.64 | 0.64 | 96 | 1013.0 |
| 20260507021502 | 63 | 323 | 0.0 | 1.0 | 0.06 | 0.64 | 0.64 | 96 | 1013.1 |
| 20260507021002 | 63 | 323 | 0.0 | 2.0 | 0.07 | 0.64 | 0.64 | 96 | 1013.1 |
| 20260507020502 | 64 | 79 | 1.0 | 2.0 | 0.08 | 0.63 | 0.63 | 95 | 1012.4 |
| 20260507020006 | 64 | 141 | 1.0 | 2.0 | 0.15 | 0.63 | 0.63 | 95 | 1013.0 |
| 20260507015502 | 64 | 141 | 0.0 | 1.0 | 0.39 | 0.63 | 0.63 | 95 | 1013.3 |
| 20260507015004 | 64 | 141 | 0.0 | 1.0 | 0.55 | 0.63 | 0.63 | 95 | 1013.7 |
| 20260507014502 | 64 | 141 | 0.0 | 2.0 | 0.60 | 0.63 | 0.63 | 95 | 1014.0 |
| 20260507014005 | 64 | 141 | 1.0 | 2.0 | 0.59 | 0.62 | 0.62 | 96 | 1014.0 |
| 20260507013501 | 64 | 95 | 0.0 | 2.0 | 0.59 | 0.62 | 0.62 | 96 | 1014.1 |
| 20260507012503 | 64 | 95 | 0.0 | 1.0 | 0.58 | 0.61 | 0.61 | 95 | 1014.0 |
| 20260507011504 | 64 | 355 | 0.0 | 2.0 | 0.55 | 0.58 | 0.58 | 95 | 1014.3 |
| 20260507010005 | 64 | 97 | 2.0 | 5.0 | 0.42 | 0.44 | 0.44 | 95 | 1013.3 |
| 20260507005504 | 64 | 283 | 2.0 | 5.0 | 0.22 | 0.24 | 0.24 | 95 | 1014.9 |
| 20260507004003 | 65 | 301 | 1.0 | 3.0 | 0.01 | 0.03 | 0.03 | 94 | 1011.9 |
| 20260507003503 | 65 | 14 | 1.0 | 3.0 | 0.01 | 0.03 | 0.03 | 93 | 1011.1 |
| 20260507003005 | 65 | 49 | 1.0 | 3.0 | 0.01 | 0.03 | 0.03 | 93 | 1010.9 |
| 20260507002503 | 65 | 95 | 1.0 | 2.0 | 0.01 | 0.03 | 0.03 | 93 | 1010.8 |
| 20260507002002 | 65 | 217 | 0.0 | 1.0 | 0.02 | 0.03 | 0.03 | 93 | 1011.5 |
| 20260507001503 | 65 | 294 | 0.0 | 3.0 | 0.02 | 0.03 | 0.03 | 93 | 1011.9 |
| 20260507000503 | 65 | 34 | 0.0 | 1.0 | 0.01 | 0.02 | 0.02 | 93 | 1012.4 |
| 20260507000005 | 65 | 350 | 0.0 | 1.0 | 0.01 | 0.02 | 0.02 | 92 | 1012.5 |
| 20260506235503 | 65 | 301 | 1.0 | 2.0 | 0.01 | 0.02 | 0.02 | 92 | 1013.0 |
| 20260506235003 | 65 | 301 | 1.0 | 2.0 | 0.01 | 0.02 | 0.02 | 92 | 1012.9 |
| 20260506234503 | 66 | 111 | 0.0 | 2.0 | 0.01 | 0.02 | 0.02 | 92 | 1012.8 |
| 20260506234002 | 66 | 97 | 0.0 | 1.0 | 0.01 | 0.02 | 0.02 | 91 | 1013.2 |
| 20260506233505 | 66 | 323 | 0.0 | 2.0 | 0.01 | 0.02 | 0.02 | 92 | 1013.1 |
| 20260506233002 | 66 | 323 | 1.0 | 3.0 | 0.01 | 0.02 | 0.02 | 91 | 1013.3 |
| 20260506232502 | 66 | 27 | 1.0 | 3.0 | 0.01 | 0.02 | 0.02 | 90 | 1013.0 |
| 20260506232004 | 67 | 5 | 1.0 | 6.0 | 0.00 | 0.01 | 0.01 | 89 | 1013.0 |
| 20260506231502 | 68 | 33 | 3.0 | 8.0 | 0.00 | 0.01 | 0.01 | 87 | 1012.9 |
| 20260506231003 | 69 | 350 | 3.0 | 8.0 | 0.00 | 0.01 | 0.01 | 85 | 1013.0 |
| 20260506230502 | 70 | 92 | 3.0 | 8.0 | 0.00 | 0.01 | 0.01 | 83 | 1013.2 |
| 20260506230004 | 71 | 25 | 2.0 | 6.0 | 0.00 | 0.01 | 0.01 | 83 | 1013.4 |
| 20260506225502 | 71 | 327 | 1.0 | 3.0 | 0.00 | 0.01 | 0.01 | 82 | 1012.8 |
| 20260506225004 | 72 | 320 | 1.0 | 2.0 | 0.00 | 0.01 | 0.01 | 84 | 1011.8 |
| 20260506224502 | 72 | 99 | 0.0 | 1.0 | 0.00 | 0.01 | 0.01 | 83 | 1011.7 |
| 20260506224002 | 73 | 151 | 0.0 | 1.0 | 0.00 | 0.01 | 0.01 | 82 | 1011.4 |
| 20260506223004 | 73 | 280 | 0.0 | 1.0 | 0.00 | 0.01 | 0.01 | 82 | 1011.6 |
| 20260506222502 | 73 | 280 | 0.0 | 1.0 | 0.00 | 0.01 | 0.01 | 82 | 1011.7 |
| 20260506222002 | 74 | 280 | 0.0 | 1.0 | 0.00 | 0.01 | 0.01 | 82 | 1011.8 |
| 20260506221502 | 74 | 280 | 0.0 | 1.0 | 0.00 | 0.01 | 0.01 | 82 | 1011.8 |
| 20260506221004 | 74 | 280 | 0.0 | 0.0 | 0.00 | 0.01 | 0.01 | 82 | 1011.9 |
| 20260506220503 | 73 | 280 | 0.0 | 0.0 | 0.00 | 0.01 | 0.01 | 82 | 1011.9 |
| 20260506220005 | 74 | 280 | 0.0 | 1.0 | 0.00 | 0.01 | 0.01 | 81 | 1012.1 |
| 20260506215504 | 74 | 280 | 0.0 | 1.0 | 0.00 | 0.01 | 0.01 | 81 | 1012.1 |
| 20260506215002 | 74 | 280 | 0.0 | 0.0 | 0.00 | 0.01 | 0.01 | 82 | 1011.9 |
| 20260506214502 | 74 | 280 | 0.0 | 0.0 | 0.00 | 0.01 | 0.01 | 82 | 1011.9 |
| 20260506214003 | 74 | 280 | 0.0 | 0.0 | 0.00 | 0.01 | 0.01 | 82 | 1011.9 |
| 20260506213003 | 74 | 280 | 0.0 | 0.0 | 0.00 | 0.01 | 0.01 | 80 | 1012.2 |
| 20260506212502 | 74 | 280 | 0.0 | 0.0 | 0.00 | 0.01 | 0.01 | 80 | 1012.3 |
| 20260506212004 | 74 | 280 | 0.0 | 0.0 | 0.00 | 0.01 | 0.01 | 81 | 1012.4 |
| 20260506211502 | 74 | 280 | 0.0 | 0.0 | 0.00 | 0.01 | 0.01 | 80 | 1012.5 |
| 20260506211003 | 74 | 280 | 0.0 | 0.0 | 0.00 | 0.01 | 0.01 | 80 | 1012.7 |
| 20260506210006 | 74 | 280 | 0.0 | 0.0 | 0.00 | 0.01 | 0.01 | 79 | 1012.7 |
| 20260506205503 | 74 | 280 | 0.0 | 0.0 | 0.00 | 0.01 | 0.01 | 79 | 1012.7 |
| 20260506205002 | 74 | 280 | 0.0 | 0.0 | 0.00 | 0.01 | 0.01 | 79 | 1012.7 |
| 20260506204502 | 74 | 280 | 0.0 | 1.0 | 0.00 | 0.01 | 0.01 | 79 | 1012.9 |
| 20260506204004 | 74 | 280 | 0.0 | 1.0 | 0.00 | 0.01 | 0.01 | 78 | 1013.0 |
| 20260506203502 | 74 | 280 | 0.0 | 1.0 | 0.00 | 0.01 | 0.01 | 77 | 1013.0 |
| 20260506203002 | 74 | 280 | 0.0 | 1.0 | 0.00 | 0.01 | 0.01 | 77 | 1013.0 |
| 20260506202004 | 74 | 280 | 1.0 | 2.0 | 0.00 | 0.01 | 0.01 | 77 | 1013.3 |
| 20260506201502 | 75 | 280 | 1.0 | 2.0 | 0.00 | 0.01 | 0.01 | 76 | 1013.4 |
| 20260506201002 | 75 | 280 | 1.0 | 3.0 | 0.00 | 0.01 | 0.01 | 76 | 1013.3 |
| 20260506200503 | 75 | 280 | 1.0 | 4.0 | 0.00 | 0.01 | 0.01 | 74 | 1013.3 |
| 20260506200005 | 75 | 300 | 2.0 | 7.0 | 0.00 | 0.01 | 0.01 | 73 | 1013.5 |
| 20260506195501 | 76 | 310 | 3.0 | 7.0 | 0.00 | 0.01 | 0.01 | 72 | 1013.5 |
| 20260506195001 | 77 | 272 | 3.0 | 7.0 | 0.00 | 0.01 | 0.01 | 71 | 1013.5 |
| 20260506194502 | 77 | 227 | 2.0 | 8.0 | 0.00 | 0.01 | 0.01 | 71 | 1013.4 |
| 20260506194002 | 77 | 282 | 2.0 | 8.0 | 0.00 | 0.01 | 0.01 | 71 | 1013.3 |
| 20260506193501 | 77 | 239 | 2.0 | 10.0 | 0.00 | 0.01 | 0.01 | 71 | 1013.5 |
| 20260506192501 | 77 | 276 | 2.0 | 5.0 | 0.00 | 0.01 | 0.01 | 73 | 1013.8 |
| 20260506192003 | 77 | 331 | 3.0 | 10.0 | 0.00 | 0.01 | 0.01 | 72 | 1013.8 |
| 20260506191500 | 76 | 290 | 3.0 | 9.0 | 0.00 | 0.01 | 0.01 | 73 | 1013.9 |
| 20260506191001 | 77 | 5 | 5.0 | 13.0 | 0.00 | 0.01 | 0.01 | 71 | 1014.0 |
| 20260506190503 | 76 | 241 | 4.0 | 12.0 | 0.00 | 0.01 | 0.01 | 72 | 1014.2 |
| 20260506190006 | 76 | 299 | 4.0 | 12.0 | 0.00 | 0.01 | 0.01 | 74 | 1014.1 |
| 20260506185501 | 75 | 275 | 4.0 | 13.0 | 0.00 | 0.01 | 0.01 | 78 | 1014.1 |
| 20260506184502 | 75 | 282 | 4.0 | 11.0 | 0.00 | 0.01 | 0.01 | 75 | 1014.1 |
| 20260506184003 | 75 | 231 | 4.0 | 11.0 | 0.00 | 0.01 | 0.01 | 76 | 1014.0 |
| 20260506183502 | 74 | 294 | 3.0 | 10.0 | 0.00 | 0.01 | 0.01 | 77 | 1014.2 |
| 20260506183001 | 73 | 265 | 2.0 | 10.0 | 0.00 | 0.01 | 0.01 | 81 | 1014.2 |
| 20260506182501 | 72 | 275 | 2.0 | 10.0 | 0.00 | 0.01 | 0.01 | 82 | 1014.1 |
| 20260506182003 | 72 | 295 | 2.0 | 8.0 | 0.00 | 0.01 | 0.01 | 83 | 1013.9 |
| 20260506181502 | 72 | 207 | 2.0 | 9.0 | 0.00 | 0.01 | 0.01 | 82 | 1014.0 |
| 20260506180501 | 72 | 283 | 3.0 | 8.0 | 0.00 | 0.01 | 0.01 | 83 | 1014.0 |
| 20260506180006 | 72 | 317 | 2.0 | 8.0 | 0.00 | 0.01 | 0.01 | 84 | 1013.8 |
| 20260506175501 | 71 | 281 | 2.0 | 6.0 | 0.01 | 0.01 | 0.01 | 82 | 1013.9 |
| 20260506174501 | 71 | 309 | 2.0 | 7.0 | 0.01 | 0.01 | 0.01 | 87 | 1013.8 |
| 20260506173501 | 70 | 273 | 1.0 | 5.0 | 0.01 | 0.01 | 0.01 | 85 | 1014.2 |
| 20260506173004 | 70 | 293 | 1.0 | 4.0 | 0.01 | 0.01 | 0.01 | 89 | 1014.4 |
| 20260506172001 | 69 | 236 | 1.0 | 4.0 | 0.01 | 0.01 | 0.01 | 88 | 1014.6 |
| 20260506171003 | 69 | 168 | 0.0 | 2.0 | 0.01 | 0.01 | 0.01 | 90 | 1014.8 |
| 20260506170502 | 69 | 101 | 1.0 | 2.0 | 0.01 | 0.01 | 0.01 | 87 | 1014.6 |
| 20260506170005 | 69 | 89 | 1.0 | 4.0 | 0.01 | 0.01 | 0.01 | 87 | 1014.8 |
| 20260506165501 | 69 | 90 | 2.0 | 6.0 | 0.00 | 0.00 | 0.00 | 85 | 1015.0 |
| 20260506164501 | 69 | 273 | 1.0 | 4.0 | 0.00 | 0.00 | 0.00 | 82 | 1015.6 |
| 20260506164002 | 69 | 273 | 2.0 | 9.0 | 0.00 | 0.00 | 0.00 | 81 | 1015.6 |
| 20260506163502 | 69 | 270 | 2.0 | 9.0 | 0.00 | 0.00 | 0.00 | 80 | 1015.9 |
| 20260506162502 | 70 | 22 | 1.0 | 4.0 | 0.00 | 0.00 | 0.00 | 79 | 1015.7 |
| 20260506162002 | 70 | 291 | 2.0 | 5.0 | 0.00 | 0.00 | 0.00 | 79 | 1015.8 |
| 20260506161502 | 70 | 283 | 3.0 | 8.0 | 0.00 | 0.00 | 0.00 | 79 | 1015.7 |
| 20260506160503 | 70 | 294 | 1.0 | 3.0 | 0.00 | 0.00 | 0.00 | 80 | 1015.7 |
| 20260506160003 | 70 | 273 | 1.0 | 4.0 | 0.00 | 0.00 | 0.00 | 81 | 1015.2 |
| 20260506155500 | 70 | 253 | 1.0 | 4.0 | 0.00 | 0.00 | 0.00 | 79 | 1015.0 |
| 20260506155002 | 70 | 317 | 2.0 | 7.0 | 0.00 | 0.00 | 0.00 | 78 | 1015.4 |
| 20260506154000 | 70 | 338 | 1.0 | 8.0 | 0.00 | 0.00 | 0.00 | 78 | 1015.2 |
| 20260506153500 | 70 | 270 | 1.0 | 3.0 | 0.00 | 0.00 | 0.00 | 79 | 1015.3 |
| 20260506153002 | 69 | 184 | 1.0 | 3.0 | 0.00 | 0.00 | 0.00 | 78 | 1015.3 |
| 20260506152500 | 69 | 355 | 1.0 | 4.0 | 0.00 | 0.00 | 0.00 | 78 | 1015.2 |
| 20260506152000 | 69 | 238 | 2.0 | 8.0 | 0.00 | 0.00 | 0.00 | 79 | 1015.2 |
| 20260506151500 | 69 | 297 | 2.0 | 8.0 | 0.00 | 0.00 | 0.00 | 78 | 1015.4 |
| 20260506151002 | 69 | 316 | 2.0 | 8.0 | 0.00 | 0.00 | 0.00 | 78 | 1015.0 |
| 20260506145502 | 68 | 272 | 3.0 | 7.0 | 0.00 | 0.00 | 0.00 | 77 | 1015.1 |
| 20260506145003 | 68 | 290 | 2.0 | 7.0 | 0.00 | 0.00 | 0.00 | 77 | 1014.9 |
| 20260506144501 | 68 | 302 | 2.0 | 8.0 | 0.00 | 0.00 | 0.00 | 76 | 1014.9 |
| 20260506144002 | 69 | 296 | 2.0 | 8.0 | 0.00 | 0.00 | 0.00 | 76 | 1014.8 |
| 20260506143501 | 69 | 236 | 1.0 | 4.0 | 0.00 | 0.00 | 0.00 | 76 | 1014.8 |
| 20260506142501 | 68 | 276 | 3.0 | 8.0 | 0.00 | 0.00 | 0.00 | 76 | 1014.6 |
| 20260506142004 | 68 | 308 | 3.0 | 8.0 | 0.00 | 0.00 | 0.00 | 76 | 1014.3 |
| 20260506141501 | 68 | 284 | 3.0 | 6.0 | 0.00 | 0.00 | 0.00 | 77 | 1014.3 |
| 20260506140503 | 68 | 259 | 2.0 | 8.0 | 0.00 | 0.00 | 0.00 | 77 | 1014.3 |
| 20260506140002 | 68 | 289 | 2.0 | 8.0 | 0.00 | 0.00 | 0.00 | 78 | 1014.3 |
| 20260506135500 | 67 | 286 | 3.0 | 6.0 | 0.00 | 0.00 | 0.00 | 78 | 1014.3 |
| 20260506135002 | 67 | 277 | 3.0 | 8.0 | 0.00 | 0.00 | 0.00 | 77 | 1014.4 |
| 20260506134500 | 67 | 298 | 3.0 | 9.0 | 0.00 | 0.00 | 0.00 | 78 | 1014.4 |
| 20260506134000 | 67 | 281 | 1.0 | 9.0 | 0.00 | 0.00 | 0.00 | 79 | 1014.5 |
| 20260506133503 | 67 | 314 | 1.0 | 3.0 | 0.00 | 0.00 | 0.00 | 79 | 1014.2 |
| 20260506132500 | 66 | 309 | 2.0 | 5.0 | 0.00 | 0.00 | 0.00 | 80 | 1014.4 |
| 20260506132002 | 66 | 167 | 2.0 | 7.0 | 0.00 | 0.00 | 0.00 | 80 | 1014.4 |
| 20260506131500 | 65 | 322 | 1.0 | 4.0 | 0.00 | 0.00 | 0.00 | 82 | 1014.6 |
| 20260506131000 | 65 | 267 | 1.0 | 4.0 | 0.00 | 0.00 | 0.00 | 83 | 1014.5 |
| 20260506130500 | 64 | 282 | 1.0 | 2.0 | 0.00 | 0.00 | 0.00 | 84 | 1014.6 |
| 20260506130007 | 64 | 185 | 0.0 | 2.0 | 0.00 | 0.00 | 0.00 | 84 | 1014.6 |
| 20260506125501 | 64 | 261 | 0.0 | 2.0 | 0.00 | 0.00 | 0.00 | 84 | 1014.7 |
| 20260506125001 | 63 | 246 | 0.0 | 2.0 | 0.00 | 0.00 | 0.00 | 84 | 1014.6 |
| 20260506124001 | 63 | 277 | 0.0 | 2.0 | 0.00 | 0.00 | 0.00 | 84 | 1014.7 |
| 20260506122501 | 63 | 237 | 0.0 | 1.0 | 0.00 | 0.00 | 0.00 | 85 | 1014.4 |
| 20260506122001 | 63 | 237 | 0.0 | 2.0 | 0.00 | 0.00 | 0.00 | 85 | 1014.1 |
| 20260506121501 | 63 | 237 | 0.0 | 0.0 | 0.00 | 0.00 | 0.00 | 85 | 1013.9 |
| 20260506121003 | 63 | 237 | 0.0 | 0.0 | 0.00 | 0.00 | 0.00 | 85 | 1014.1 |
| 20260506120501 | 62 | 237 | 0.0 | 0.0 | 0.00 | 0.00 | 0.00 | 85 | 1014.3 |
| 20260506120004 | 62 | 237 | 0.0 | 0.0 | 0.00 | 0.00 | 0.00 | 84 | 1014.3 |
| 20260506115501 | 62 | 237 | 0.0 | 0.0 | 0.00 | 0.00 | 0.00 | 84 | 1014.3 |
| 20260506115003 | 62 | 237 | 0.0 | 0.0 | 0.00 | 0.00 | 0.00 | 84 | 1014.3 |
| 20260506114501 | 62 | 237 | 0.0 | 0.0 | 0.00 | 0.00 | 0.00 | 83 | 1014.3 |
| 20260506114001 | 62 | 237 | 0.0 | 0.0 | 0.00 | 0.00 | 0.00 | 83 | 1014.3 |
| 20260506113502 | 62 | 237 | 0.0 | 0.0 | 0.00 | 0.00 | 0.00 | 84 | 1014.4 |
| 20260506113003 | 62 | 237 | 0.0 | 0.0 | 0.00 | 0.00 | 0.00 | 82 | 1014.4 |
| 20260506112501 | 62 | 237 | 0.0 | 0.0 | 0.00 | 0.00 | 0.00 | 82 | 1014.2 |
| 20260506112001 | 63 | 237 | 0.0 | 0.0 | 0.00 | 0.00 | 0.00 | 83 | 1014.3 |
| 20260506110501 | 63 | 237 | 0.0 | 1.0 | 0.00 | 0.00 | 0.00 | 81 | 1013.9 |
| 20260506110002 | 63 | 237 | 0.0 | 1.0 | 0.00 | 0.00 | 0.00 | 81 | 1013.9 |
| 20260506105500 | 63 | 237 | 0.0 | 0.0 | 0.00 | 0.00 | 0.00 | 80 | 1013.7 |
| 20260506105001 | 63 | 237 | 0.0 | 1.0 | 0.00 | 0.00 | 0.00 | 80 | 1013.6 |
| 20260506104500 | 63 | 237 | 0.0 | 1.0 | 0.00 | 0.00 | 0.00 | 80 | 1013.5 |